aviador You're here:

KMVH Decoded Metar

in
Report Time2017-10-22 06:15:00
UTC Time2017-10-22 06:35:36
Flight Rules vfr VFR
Wind310° at 04 kt
W.Rank310° ranks 1
Current wind is below 310° avg. (11.9)
Visibility9999 m
Phenomena:N/A
Clouds:N/A
Expected CloudBase > 2,800 ft AGL from Temp-Dew spread
CeilingNone
Temp-1°C
Dew Point-8°C (59% RH)
AAT-5.3°C
QNH1011 hPa
Raw Report
KMVH 220615Z AUTO 31004KT 10SM CLR M01/M08 A2985 RMK AO2=

Extra information for KMVH:More info

Social comments